sensor_id;sensor_type;location;lat;lon;timestamp;P1;durP1;ratioP1;P2;durP2;ratioP2
3141;SDS011;1581;51.568;6.998;2022-12-18T00:01:29;56.50;;;28.27;;
3141;SDS011;1581;51.568;6.998;2022-12-18T00:04:11;63.30;;;28.17;;
3141;SDS011;1581;51.568;6.998;2022-12-18T00:06:46;52.43;;;26.43;;
3141;SDS011;1581;51.568;6.998;2022-12-18T00:09:13;50.70;;;24.87;;
3141;SDS011;1581;51.568;6.998;2022-12-18T00:11:42;52.83;;;26.20;;
3141;SDS011;1581;51.568;6.998;2022-12-18T00:14:12;49.43;;;25.53;;
3141;SDS011;1581;51.568;6.998;2022-12-18T00:16:42;53.47;;;25.50;;
3141;SDS011;1581;51.568;6.998;2022-12-18T00:19:11;58.00;;;26.27;;
3141;SDS011;1581;51.568;6.998;2022-12-18T00:21:40;57.43;;;26.37;;
3141;SDS011;1581;51.568;6.998;2022-12-18T00:24:08;45.33;;;24.17;;
3141;SDS011;1581;51.568;6.998;2022-12-18T00:26:37;48.77;;;25.43;;
3141;SDS011;1581;51.568;6.998;2022-12-18T00:29:06;51.77;;;27.67;;
3141;SDS011;1581;51.568;6.998;2022-12-18T00:31:40;49.50;;;26.03;;
3141;SDS011;1581;51.568;6.998;2022-12-18T00:34:09;55.43;;;27.80;;
3141;SDS011;1581;51.568;6.998;2022-12-18T00:36:38;59.53;;;26.80;;
3141;SDS011;1581;51.568;6.998;2022-12-18T00:39:07;47.90;;;25.97;;
3141;SDS011;1581;51.568;6.998;2022-12-18T00:41:38;53.80;;;26.40;;
3141;SDS011;1581;51.568;6.998;2022-12-18T00:44:23;47.93;;;24.60;;
3141;SDS011;1581;51.568;6.998;2022-12-18T00:46:52;46.00;;;24.50;;
3141;SDS011;1581;51.568;6.998;2022-12-18T00:49:19;45.30;;;24.23;;
3141;SDS011;1581;51.568;6.998;2022-12-18T00:51:47;47.77;;;24.40;;
3141;SDS011;1581;51.568;6.998;2022-12-18T00:54:15;51.93;;;24.30;;
3141;SDS011;1581;51.568;6.998;2022-12-18T00:56:44;50.27;;;24.27;;
3141;SDS011;1581;51.568;6.998;2022-12-18T00:59:14;44.63;;;23.13;;
3141;SDS011;1581;51.568;6.998;2022-12-18T01:01:47;50.43;;;24.40;;
3141;SDS011;1581;51.568;6.998;2022-12-18T01:04:16;43.33;;;23.10;;
3141;SDS011;1581;51.568;6.998;2022-12-18T01:06:44;48.07;;;24.47;;
3141;SDS011;1581;51.568;6.998;2022-12-18T01:09:16;45.73;;;22.40;;
3141;SDS011;1581;51.568;6.998;2022-12-18T01:11:48;50.67;;;22.63;;
3141;SDS011;1581;51.568;6.998;2022-12-18T01:14:16;53.03;;;24.20;;
3141;SDS011;1581;51.568;6.998;2022-12-18T01:16:43;50.57;;;24.10;;
3141;SDS011;1581;51.568;6.998;2022-12-18T01:19:11;42.00;;;22.97;;
3141;SDS011;1581;51.568;6.998;2022-12-18T01:21:40;45.90;;;23.67;;
3141;SDS011;1581;51.568;6.998;2022-12-18T01:24:09;45.73;;;22.60;;
3141;SDS011;1581;51.568;6.998;2022-12-18T01:26:38;47.03;;;23.03;;
3141;SDS011;1581;51.568;6.998;2022-12-18T01:29:06;45.50;;;24.17;;
3141;SDS011;1581;51.568;6.998;2022-12-18T01:31:33;50.80;;;23.83;;
3141;SDS011;1581;51.568;6.998;2022-12-18T01:34:01;48.83;;;22.83;;
3141;SDS011;1581;51.568;6.998;2022-12-18T01:36:31;45.50;;;22.47;;
3141;SDS011;1581;51.568;6.998;2022-12-18T01:39:05;43.83;;;22.40;;
3141;SDS011;1581;51.568;6.998;2022-12-18T01:41:37;37.60;;;19.67;;
3141;SDS011;1581;51.568;6.998;2022-12-18T01:47:40;40.20;;;20.73;;
3141;SDS011;1581;51.568;6.998;2022-12-18T01:50:13;45.00;;;20.73;;
3141;SDS011;1581;51.568;6.998;2022-12-18T01:52:44;42.90;;;22.70;;
3141;SDS011;1581;51.568;6.998;2022-12-18T01:55:19;44.13;;;21.07;;
3141;SDS011;1581;51.568;6.998;2022-12-18T01:57:50;39.07;;;19.67;;
3141;SDS011;1581;51.568;6.998;2022-12-18T02:00:23;34.57;;;18.23;;
3141;SDS011;1581;51.568;6.998;2022-12-18T02:02:53;37.50;;;18.97;;
3141;SDS011;1581;51.568;6.998;2022-12-18T02:05:23;40.70;;;20.20;;
3141;SDS011;1581;51.568;6.998;2022-12-18T02:08:09;43.07;;;19.77;;
3141;SDS011;1581;51.568;6.998;2022-12-18T02:10:45;38.97;;;17.50;;
3141;SDS011;1581;51.568;6.998;2022-12-18T02:13:24;35.20;;;19.17;;
3141;SDS011;1581;51.568;6.998;2022-12-18T02:15:59;39.97;;;20.83;;
3141;SDS011;1581;51.568;6.998;2022-12-18T02:18:35;45.70;;;20.70;;
3141;SDS011;1581;51.568;6.998;2022-12-18T02:21:09;38.40;;;20.40;;
3141;SDS011;1581;51.568;6.998;2022-12-18T02:23:47;42.77;;;20.97;;
3141;SDS011;1581;51.568;6.998;2022-12-18T02:26:26;37.03;;;20.10;;
3141;SDS011;1581;51.568;6.998;2022-12-18T02:29:00;39.13;;;19.27;;
3141;SDS011;1581;51.568;6.998;2022-12-18T02:31:36;38.10;;;19.40;;
3141;SDS011;1581;51.568;6.998;2022-12-18T02:34:11;30.67;;;17.53;;
3141;SDS011;1581;51.568;6.998;2022-12-18T02:36:40;40.13;;;19.07;;
3141;SDS011;1581;51.568;6.998;2022-12-18T02:39:10;37.83;;;18.03;;
3141;SDS011;1581;51.568;6.998;2022-12-18T02:41:48;29.03;;;15.40;;
3141;SDS011;1581;51.568;6.998;2022-12-18T02:44:16;38.00;;;18.13;;
3141;SDS011;1581;51.568;6.998;2022-12-18T02:46:45;37.60;;;17.87;;
3141;SDS011;1581;51.568;6.998;2022-12-18T02:49:27;33.40;;;18.07;;
3141;SDS011;1581;51.568;6.998;2022-12-18T02:52:06;27.87;;;15.57;;
3141;SDS011;1581;51.568;6.998;2022-12-18T02:54:55;27.47;;;15.70;;
3141;SDS011;1581;51.568;6.998;2022-12-18T02:57:35;42.07;;;15.20;;
3141;SDS011;1581;51.568;6.998;2022-12-18T03:00:09;35.93;;;13.70;;
3141;SDS011;1581;51.568;6.998;2022-12-18T03:02:48;25.13;;;14.00;;
3141;SDS011;1581;51.568;6.998;2022-12-18T03:05:23;24.70;;;12.87;;
3141;SDS011;1581;51.568;6.998;2022-12-18T03:07:57;27.50;;;13.20;;
3141;SDS011;1581;51.568;6.998;2022-12-18T03:10:30;27.50;;;14.13;;
3141;SDS011;1581;51.568;6.998;2022-12-18T03:13:08;27.33;;;12.87;;
3141;SDS011;1581;51.568;6.998;2022-12-18T03:15:41;27.53;;;12.80;;
3141;SDS011;1581;51.568;6.998;2022-12-18T03:18:14;25.17;;;12.77;;
3141;SDS011;1581;51.568;6.998;2022-12-18T03:20:46;25.20;;;12.93;;
3141;SDS011;1581;51.568;6.998;2022-12-18T03:23:18;20.43;;;12.00;;
3141;SDS011;1581;51.568;6.998;2022-12-18T03:25:51;22.20;;;11.63;;
3141;SDS011;1581;51.568;6.998;2022-12-18T03:28:25;23.13;;;11.93;;
3141;SDS011;1581;51.568;6.998;2022-12-18T03:30:57;29.70;;;11.90;;
3141;SDS011;1581;51.568;6.998;2022-12-18T03:33:28;21.00;;;12.10;;
3141;SDS011;1581;51.568;6.998;2022-12-18T03:36:00;18.07;;;11.03;;
3141;SDS011;1581;51.568;6.998;2022-12-18T03:38:28;23.83;;;11.07;;
3141;SDS011;1581;51.568;6.998;2022-12-18T03:40:59;17.30;;;9.33;;
3141;SDS011;1581;51.568;6.998;2022-12-18T03:43:38;18.57;;;10.63;;
3141;SDS011;1581;51.568;6.998;2022-12-18T03:46:15;18.77;;;10.03;;
3141;SDS011;1581;51.568;6.998;2022-12-18T03:48:52;17.67;;;10.50;;
3141;SDS011;1581;51.568;6.998;2022-12-18T03:51:29;16.57;;;10.33;;
3141;SDS011;1581;51.568;6.998;2022-12-18T03:54:06;20.67;;;10.30;;
3141;SDS011;1581;51.568;6.998;2022-12-18T03:56:35;19.33;;;9.87;;
3141;SDS011;1581;51.568;6.998;2022-12-18T03:59:08;17.23;;;9.87;;
3141;SDS011;1581;51.568;6.998;2022-12-18T04:01:39;16.73;;;8.83;;
3141;SDS011;1581;51.568;6.998;2022-12-18T04:04:12;18.17;;;10.33;;
3141;SDS011;1581;51.568;6.998;2022-12-18T04:06:41;18.07;;;9.73;;
3141;SDS011;1581;51.568;6.998;2022-12-18T04:09:12;15.40;;;8.50;;
3141;SDS011;1581;51.568;6.998;2022-12-18T04:11:40;19.20;;;9.80;;
3141;SDS011;1581;51.568;6.998;2022-12-18T04:14:19;20.97;;;10.73;;
3141;SDS011;1581;51.568;6.998;2022-12-18T04:16:47;16.40;;;9.83;;
3141;SDS011;1581;51.568;6.998;2022-12-18T04:19:17;16.00;;;9.33;;
3141;SDS011;1581;51.568;6.998;2022-12-18T04:21:44;18.03;;;8.80;;
3141;SDS011;1581;51.568;6.998;2022-12-18T04:24:12;15.03;;;9.10;;
3141;SDS011;1581;51.568;6.998;2022-12-18T04:26:39;14.80;;;8.50;;
3141;SDS011;1581;51.568;6.998;2022-12-18T04:29:07;18.97;;;9.43;;
3141;SDS011;1581;51.568;6.998;2022-12-18T04:31:36;17.63;;;9.90;;
3141;SDS011;1581;51.568;6.998;2022-12-18T04:34:03;14.23;;;8.77;;
3141;SDS011;1581;51.568;6.998;2022-12-18T04:36:31;15.30;;;9.20;;
3141;SDS011;1581;51.568;6.998;2022-12-18T04:38:58;19.10;;;8.57;;
3141;SDS011;1581;51.568;6.998;2022-12-18T04:41:26;18.90;;;8.87;;
3141;SDS011;1581;51.568;6.998;2022-12-18T04:43:53;14.47;;;8.23;;
3141;SDS011;1581;51.568;6.998;2022-12-18T04:46:21;17.77;;;8.83;;
3141;SDS011;1581;51.568;6.998;2022-12-18T04:48:50;15.73;;;7.93;;
3141;SDS011;1581;51.568;6.998;2022-12-18T04:51:18;12.77;;;7.97;;
3141;SDS011;1581;51.568;6.998;2022-12-18T04:53:45;15.23;;;8.43;;
3141;SDS011;1581;51.568;6.998;2022-12-18T04:56:13;13.03;;;7.80;;
3141;SDS011;1581;51.568;6.998;2022-12-18T04:58:43;13.43;;;8.77;;
3141;SDS011;1581;51.568;6.998;2022-12-18T05:01:11;13.47;;;8.40;;
3141;SDS011;1581;51.568;6.998;2022-12-18T05:03:40;14.00;;;8.40;;
3141;SDS011;1581;51.568;6.998;2022-12-18T05:06:10;16.03;;;9.10;;
3141;SDS011;1581;51.568;6.998;2022-12-18T05:08:37;14.00;;;7.80;;
3141;SDS011;1581;51.568;6.998;2022-12-18T05:11:05;15.57;;;8.30;;
3141;SDS011;1581;51.568;6.998;2022-12-18T05:13:35;13.93;;;7.93;;
3141;SDS011;1581;51.568;6.998;2022-12-18T05:16:03;15.03;;;8.30;;
3141;SDS011;1581;51.568;6.998;2022-12-18T05:18:32;20.63;;;9.47;;
3141;SDS011;1581;51.568;6.998;2022-12-18T05:21:00;15.13;;;8.90;;
3141;SDS011;1581;51.568;6.998;2022-12-18T05:23:29;15.37;;;8.50;;
3141;SDS011;1581;51.568;6.998;2022-12-18T05:25:58;15.47;;;8.80;;
3141;SDS011;1581;51.568;6.998;2022-12-18T05:28:28;14.87;;;9.13;;
3141;SDS011;1581;51.568;6.998;2022-12-18T05:30:57;17.27;;;9.80;;
3141;SDS011;1581;51.568;6.998;2022-12-18T05:33:29;15.50;;;8.33;;
3141;SDS011;1581;51.568;6.998;2022-12-18T05:36:00;17.30;;;9.57;;
3141;SDS011;1581;51.568;6.998;2022-12-18T05:38:31;17.40;;;9.47;;
3141;SDS011;1581;51.568;6.998;2022-12-18T05:41:01;20.10;;;9.10;;
3141;SDS011;1581;51.568;6.998;2022-12-18T05:43:29;18.67;;;9.60;;
3141;SDS011;1581;51.568;6.998;2022-12-18T05:45:56;15.43;;;9.00;;
3141;SDS011;1581;51.568;6.998;2022-12-18T05:48:24;17.93;;;9.47;;
3141;SDS011;1581;51.568;6.998;2022-12-18T05:50:52;17.57;;;9.83;;
3141;SDS011;1581;51.568;6.998;2022-12-18T05:53:20;18.80;;;9.67;;
3141;SDS011;1581;51.568;6.998;2022-12-18T05:55:59;18.33;;;9.50;;
3141;SDS011;1581;51.568;6.998;2022-12-18T05:58:28;14.50;;;8.50;;
3141;SDS011;1581;51.568;6.998;2022-12-18T06:00:56;17.00;;;9.47;;
3141;SDS011;1581;51.568;6.998;2022-12-18T06:03:24;12.43;;;7.90;;
3141;SDS011;1581;51.568;6.998;2022-12-18T06:05:52;15.67;;;8.80;;
3141;SDS011;1581;51.568;6.998;2022-12-18T06:08:19;14.93;;;7.33;;
3141;SDS011;1581;51.568;6.998;2022-12-18T06:10:50;15.03;;;8.37;;
3141;SDS011;1581;51.568;6.998;2022-12-18T06:13:18;16.30;;;8.53;;
3141;SDS011;1581;51.568;6.998;2022-12-18T06:15:47;14.43;;;8.07;;
3141;SDS011;1581;51.568;6.998;2022-12-18T06:18:14;17.33;;;8.80;;
3141;SDS011;1581;51.568;6.998;2022-12-18T06:20:43;30.27;;;8.87;;
3141;SDS011;1581;51.568;6.998;2022-12-18T06:23:10;16.37;;;8.50;;
3141;SDS011;1581;51.568;6.998;2022-12-18T06:25:38;13.20;;;7.10;;
3141;SDS011;1581;51.568;6.998;2022-12-18T06:28:07;15.17;;;8.60;;
3141;SDS011;1581;51.568;6.998;2022-12-18T06:30:36;14.87;;;8.27;;
3141;SDS011;1581;51.568;6.998;2022-12-18T06:33:05;14.57;;;8.43;;
3141;SDS011;1581;51.568;6.998;2022-12-18T06:35:33;17.03;;;8.50;;
3141;SDS011;1581;51.568;6.998;2022-12-18T06:38:00;17.30;;;9.43;;
3141;SDS011;1581;51.568;6.998;2022-12-18T06:40:29;16.20;;;8.43;;
3141;SDS011;1581;51.568;6.998;2022-12-18T06:42:56;17.93;;;8.23;;
3141;SDS011;1581;51.568;6.998;2022-12-18T06:45:26;16.73;;;8.33;;
3141;SDS011;1581;51.568;6.998;2022-12-18T06:47:54;14.77;;;8.10;;
3141;SDS011;1581;51.568;6.998;2022-12-18T06:50:37;16.10;;;7.63;;
3141;SDS011;1581;51.568;6.998;2022-12-18T06:53:09;15.70;;;8.57;;
3141;SDS011;1581;51.568;6.998;2022-12-18T06:55:36;12.77;;;7.77;;
3141;SDS011;1581;51.568;6.998;2022-12-18T06:58:04;15.23;;;8.27;;
3141;SDS011;1581;51.568;6.998;2022-12-18T07:00:33;13.83;;;8.13;;
3141;SDS011;1581;51.568;6.998;2022-12-18T07:03:01;11.50;;;6.60;;
3141;SDS011;1581;51.568;6.998;2022-12-18T07:05:28;14.00;;;7.13;;
3141;SDS011;1581;51.568;6.998;2022-12-18T07:07:56;15.90;;;8.50;;
3141;SDS011;1581;51.568;6.998;2022-12-18T07:10:24;12.67;;;7.43;;
3141;SDS011;1581;51.568;6.998;2022-12-18T07:12:52;11.77;;;7.30;;
3141;SDS011;1581;51.568;6.998;2022-12-18T07:15:19;13.50;;;8.33;;
3141;SDS011;1581;51.568;6.998;2022-12-18T07:17:48;13.43;;;7.70;;
3141;SDS011;1581;51.568;6.998;2022-12-18T07:20:16;12.43;;;8.20;;
3141;SDS011;1581;51.568;6.998;2022-12-18T07:22:44;10.23;;;6.77;;
3141;SDS011;1581;51.568;6.998;2022-12-18T07:25:11;13.70;;;7.47;;
3141;SDS011;1581;51.568;6.998;2022-12-18T07:27:39;13.50;;;7.87;;
3141;SDS011;1581;51.568;6.998;2022-12-18T07:30:09;11.67;;;7.20;;
3141;SDS011;1581;51.568;6.998;2022-12-18T07:32:37;11.73;;;6.50;;
3141;SDS011;1581;51.568;6.998;2022-12-18T07:35:06;11.90;;;7.93;;
3141;SDS011;1581;51.568;6.998;2022-12-18T07:37:34;12.87;;;6.60;;
3141;SDS011;1581;51.568;6.998;2022-12-18T07:40:06;11.37;;;7.17;;
3141;SDS011;1581;51.568;6.998;2022-12-18T07:42:36;11.50;;;6.73;;
3141;SDS011;1581;51.568;6.998;2022-12-18T07:45:04;12.93;;;8.17;;
3141;SDS011;1581;51.568;6.998;2022-12-18T07:47:34;14.10;;;7.50;;
3141;SDS011;1581;51.568;6.998;2022-12-18T07:50:02;13.10;;;8.10;;
3141;SDS011;1581;51.568;6.998;2022-12-18T07:52:32;11.90;;;8.27;;
3141;SDS011;1581;51.568;6.998;2022-12-18T07:54:59;18.50;;;7.27;;
3141;SDS011;1581;51.568;6.998;2022-12-18T07:57:27;13.40;;;8.13;;
3141;SDS011;1581;51.568;6.998;2022-12-18T08:00:00;15.07;;;8.03;;
3141;SDS011;1581;51.568;6.998;2022-12-18T08:02:30;16.07;;;8.27;;
3141;SDS011;1581;51.568;6.998;2022-12-18T08:04:57;11.00;;;7.87;;
3141;SDS011;1581;51.568;6.998;2022-12-18T08:07:25;13.10;;;7.93;;
3141;SDS011;1581;51.568;6.998;2022-12-18T08:09:54;16.43;;;8.20;;
3141;SDS011;1581;51.568;6.998;2022-12-18T08:12:21;21.03;;;8.80;;
3141;SDS011;1581;51.568;6.998;2022-12-18T08:14:49;12.13;;;7.00;;
3141;SDS011;1581;51.568;6.998;2022-12-18T08:17:16;15.37;;;7.53;;
3141;SDS011;1581;51.568;6.998;2022-12-18T08:19:45;17.47;;;8.73;;
3141;SDS011;1581;51.568;6.998;2022-12-18T08:22:13;18.30;;;9.20;;
3141;SDS011;1581;51.568;6.998;2022-12-18T08:24:40;17.30;;;9.53;;
3141;SDS011;1581;51.568;6.998;2022-12-18T08:27:10;17.53;;;9.50;;
3141;SDS011;1581;51.568;6.998;2022-12-18T08:29:37;15.57;;;9.07;;
3141;SDS011;1581;51.568;6.998;2022-12-18T08:32:05;15.77;;;8.47;;
3141;SDS011;1581;51.568;6.998;2022-12-18T08:34:33;15.43;;;9.10;;
3141;SDS011;1581;51.568;6.998;2022-12-18T08:37:00;13.80;;;7.93;;
3141;SDS011;1581;51.568;6.998;2022-12-18T08:39:28;14.90;;;9.10;;
3141;SDS011;1581;51.568;6.998;2022-12-18T08:41:56;16.03;;;7.60;;
3141;SDS011;1581;51.568;6.998;2022-12-18T08:44:47;10.50;;;6.70;;
3141;SDS011;1581;51.568;6.998;2022-12-18T08:47:26;9.17;;;6.10;;
3141;SDS011;1581;51.568;6.998;2022-12-18T08:49:53;14.27;;;7.33;;
3141;SDS011;1581;51.568;6.998;2022-12-18T08:52:21;11.17;;;6.07;;
3141;SDS011;1581;51.568;6.998;2022-12-18T08:54:48;7.27;;;4.73;;
3141;SDS011;1581;51.568;6.998;2022-12-18T08:57:16;11.03;;;6.00;;
3141;SDS011;1581;51.568;6.998;2022-12-18T08:59:45;12.70;;;6.33;;
3141;SDS011;1581;51.568;6.998;2022-12-18T09:02:13;10.07;;;6.03;;
3141;SDS011;1581;51.568;6.998;2022-12-18T09:04:40;11.53;;;5.77;;
3141;SDS011;1581;51.568;6.998;2022-12-18T09:07:08;9.60;;;6.40;;
3141;SDS011;1581;51.568;6.998;2022-12-18T09:09:35;9.57;;;5.77;;
3141;SDS011;1581;51.568;6.998;2022-12-18T09:12:03;10.13;;;5.63;;
3141;SDS011;1581;51.568;6.998;2022-12-18T09:14:30;8.10;;;5.80;;
3141;SDS011;1581;51.568;6.998;2022-12-18T09:16:59;8.67;;;5.70;;
3141;SDS011;1581;51.568;6.998;2022-12-18T09:19:27;12.17;;;6.33;;
3141;SDS011;1581;51.568;6.998;2022-12-18T09:21:55;18.40;;;8.60;;
3141;SDS011;1581;51.568;6.998;2022-12-18T09:24:29;15.53;;;8.80;;
3141;SDS011;1581;51.568;6.998;2022-12-18T09:26:57;15.97;;;8.47;;
3141;SDS011;1581;51.568;6.998;2022-12-18T09:29:25;17.43;;;9.00;;
3141;SDS011;1581;51.568;6.998;2022-12-18T09:31:52;13.47;;;7.23;;
3141;SDS011;1581;51.568;6.998;2022-12-18T09:34:21;13.20;;;7.90;;
3141;SDS011;1581;51.568;6.998;2022-12-18T09:36:49;13.00;;;6.80;;
3141;SDS011;1581;51.568;6.998;2022-12-18T09:39:16;10.37;;;6.90;;
3141;SDS011;1581;51.568;6.998;2022-12-18T09:41:45;11.07;;;6.90;;
3141;SDS011;1581;51.568;6.998;2022-12-18T09:44:20;10.13;;;6.77;;
3141;SDS011;1581;51.568;6.998;2022-12-18T09:47:03;11.30;;;7.10;;
3141;SDS011;1581;51.568;6.998;2022-12-18T09:49:38;13.23;;;8.40;;
3141;SDS011;1581;51.568;6.998;2022-12-18T09:52:12;13.60;;;8.10;;
3141;SDS011;1581;51.568;6.998;2022-12-18T09:54:49;15.30;;;9.73;;
3141;SDS011;1581;51.568;6.998;2022-12-18T09:57:21;16.97;;;10.40;;
3141;SDS011;1581;51.568;6.998;2022-12-18T09:59:53;15.80;;;9.03;;
3141;SDS011;1581;51.568;6.998;2022-12-18T10:02:29;13.70;;;8.80;;
3141;SDS011;1581;51.568;6.998;2022-12-18T10:05:04;16.13;;;8.70;;
3141;SDS011;1581;51.568;6.998;2022-12-18T10:07:39;17.20;;;9.03;;
3141;SDS011;1581;51.568;6.998;2022-12-18T10:13:26;14.20;;;8.90;;
3141;SDS011;1581;51.568;6.998;2022-12-18T10:16:08;17.83;;;8.07;;
3141;SDS011;1581;51.568;6.998;2022-12-18T10:18:54;16.23;;;8.67;;
3141;SDS011;1581;51.568;6.998;2022-12-18T10:21:34;14.87;;;8.43;;
3141;SDS011;1581;51.568;6.998;2022-12-18T10:24:14;12.20;;;7.90;;
3141;SDS011;1581;51.568;6.998;2022-12-18T10:26:50;12.47;;;7.87;;
3141;SDS011;1581;51.568;6.998;2022-12-18T10:29:28;17.20;;;8.50;;
3141;SDS011;1581;51.568;6.998;2022-12-18T10:31:59;15.87;;;9.63;;
3141;SDS011;1581;51.568;6.998;2022-12-18T10:34:27;15.63;;;7.90;;
3141;SDS011;1581;51.568;6.998;2022-12-18T10:36:56;15.60;;;8.37;;
3141;SDS011;1581;51.568;6.998;2022-12-18T10:39:27;15.57;;;8.43;;
3141;SDS011;1581;51.568;6.998;2022-12-18T10:42:11;11.47;;;7.50;;
3141;SDS011;1581;51.568;6.998;2022-12-18T10:44:46;12.87;;;8.17;;
3141;SDS011;1581;51.568;6.998;2022-12-18T10:47:35;13.50;;;8.50;;
3141;SDS011;1581;51.568;6.998;2022-12-18T10:50:10;10.03;;;7.13;;
3141;SDS011;1581;51.568;6.998;2022-12-18T10:52:57;11.17;;;7.70;;
3141;SDS011;1581;51.568;6.998;2022-12-18T10:55:27;16.20;;;9.10;;
3141;SDS011;1581;51.568;6.998;2022-12-18T10:58:18;14.90;;;8.80;;
3141;SDS011;1581;51.568;6.998;2022-12-18T11:01:04;14.13;;;8.30;;
3141;SDS011;1581;51.568;6.998;2022-12-18T11:03:43;13.23;;;8.30;;
3141;SDS011;1581;51.568;6.998;2022-12-18T11:06:19;13.23;;;8.13;;
3141;SDS011;1581;51.568;6.998;2022-12-18T11:08:58;12.00;;;8.10;;
3141;SDS011;1581;51.568;6.998;2022-12-18T11:11:28;16.40;;;9.60;;
3141;SDS011;1581;51.568;6.998;2022-12-18T11:13:58;11.63;;;8.23;;
3141;SDS011;1581;51.568;6.998;2022-12-18T11:16:33;14.33;;;8.87;;
3141;SDS011;1581;51.568;6.998;2022-12-18T11:19:17;13.57;;;8.50;;
3141;SDS011;1581;51.568;6.998;2022-12-18T11:21:59;15.97;;;8.93;;
3141;SDS011;1581;51.568;6.998;2022-12-18T11:24:33;16.80;;;9.30;;
3141;SDS011;1581;51.568;6.998;2022-12-18T11:27:02;16.37;;;9.20;;
3141;SDS011;1581;51.568;6.998;2022-12-18T11:29:50;15.87;;;9.07;;
3141;SDS011;1581;51.568;6.998;2022-12-18T11:32:37;13.23;;;7.73;;
3141;SDS011;1581;51.568;6.998;2022-12-18T11:35:12;12.20;;;8.53;;
3141;SDS011;1581;51.568;6.998;2022-12-18T11:37:47;15.77;;;8.50;;
3141;SDS011;1581;51.568;6.998;2022-12-18T11:40:27;10.90;;;7.27;;
3141;SDS011;1581;51.568;6.998;2022-12-18T11:43:04;9.13;;;6.80;;
3141;SDS011;1581;51.568;6.998;2022-12-18T11:45:40;9.30;;;7.00;;
3141;SDS011;1581;51.568;6.998;2022-12-18T11:48:14;12.73;;;7.37;;
3141;SDS011;1581;51.568;6.998;2022-12-18T11:50:49;13.93;;;7.00;;
3141;SDS011;1581;51.568;6.998;2022-12-18T11:53:19;13.37;;;7.40;;
3141;SDS011;1581;51.568;6.998;2022-12-18T11:55:53;19.53;;;10.43;;
3141;SDS011;1581;51.568;6.998;2022-12-18T11:58:37;14.10;;;8.13;;
3141;SDS011;1581;51.568;6.998;2022-12-18T12:01:20;11.07;;;7.70;;
3141;SDS011;1581;51.568;6.998;2022-12-18T12:04:12;11.90;;;7.60;;
3141;SDS011;1581;51.568;6.998;2022-12-18T12:07:05;16.23;;;8.60;;
3141;SDS011;1581;51.568;6.998;2022-12-18T12:09:55;12.13;;;7.70;;
3141;SDS011;1581;51.568;6.998;2022-12-18T12:12:37;13.97;;;7.87;;
3141;SDS011;1581;51.568;6.998;2022-12-18T12:15:25;12.23;;;8.00;;
3141;SDS011;1581;51.568;6.998;2022-12-18T12:18:05;10.10;;;7.00;;
3141;SDS011;1581;51.568;6.998;2022-12-18T12:20:47;17.20;;;7.63;;
3141;SDS011;1581;51.568;6.998;2022-12-18T12:23:23;19.70;;;8.57;;
3141;SDS011;1581;51.568;6.998;2022-12-18T12:26:03;15.43;;;9.30;;
3141;SDS011;1581;51.568;6.998;2022-12-18T12:31:46;14.50;;;8.70;;
3141;SDS011;1581;51.568;6.998;2022-12-18T12:34:33;13.90;;;9.13;;
3141;SDS011;1581;51.568;6.998;2022-12-18T12:37:13;12.60;;;7.67;;
3141;SDS011;1581;51.568;6.998;2022-12-18T12:39:50;11.33;;;7.40;;
3141;SDS011;1581;51.568;6.998;2022-12-18T12:42:23;12.77;;;8.07;;
3141;SDS011;1581;51.568;6.998;2022-12-18T12:45:20;15.53;;;7.93;;
3141;SDS011;1581;51.568;6.998;2022-12-18T12:47:54;15.70;;;8.03;;
3141;SDS011;1581;51.568;6.998;2022-12-18T12:50:25;20.83;;;8.63;;
3141;SDS011;1581;51.568;6.998;2022-12-18T12:52:54;14.07;;;8.77;;
3141;SDS011;1581;51.568;6.998;2022-12-18T12:55:23;13.87;;;8.10;;
3141;SDS011;1581;51.568;6.998;2022-12-18T12:57:56;14.93;;;8.40;;
3141;SDS011;1581;51.568;6.998;2022-12-18T13:00:39;14.80;;;7.37;;
3141;SDS011;1581;51.568;6.998;2022-12-18T13:03:18;19.00;;;7.37;;
3141;SDS011;1581;51.568;6.998;2022-12-18T13:06:02;18.77;;;7.80;;
3141;SDS011;1581;51.568;6.998;2022-12-18T13:08:51;14.93;;;9.17;;
3141;SDS011;1581;51.568;6.998;2022-12-18T13:14:31;12.90;;;8.70;;
3141;SDS011;1581;51.568;6.998;2022-12-18T13:17:15;13.30;;;9.70;;
3141;SDS011;1581;51.568;6.998;2022-12-18T13:20:11;16.67;;;8.47;;
3141;SDS011;1581;51.568;6.998;2022-12-18T13:22:41;13.50;;;8.00;;
3141;SDS011;1581;51.568;6.998;2022-12-18T13:25:31;22.33;;;8.90;;
3141;SDS011;1581;51.568;6.998;2022-12-18T13:28:02;20.67;;;9.50;;
3141;SDS011;1581;51.568;6.998;2022-12-18T13:30:43;21.13;;;8.43;;
3141;SDS011;1581;51.568;6.998;2022-12-18T13:33:40;16.50;;;9.27;;
3141;SDS011;1581;51.568;6.998;2022-12-18T13:36:24;20.20;;;9.80;;
3141;SDS011;1581;51.568;6.998;2022-12-18T13:48:27;21.37;;;11.40;;
3141;SDS011;1581;51.568;6.998;2022-12-18T13:51:00;24.47;;;11.83;;
3141;SDS011;1581;51.568;6.998;2022-12-18T13:53:33;24.30;;;11.80;;
3141;SDS011;1581;51.568;6.998;2022-12-18T13:56:05;26.80;;;12.57;;
3141;SDS011;1581;51.568;6.998;2022-12-18T13:58:33;20.20;;;11.57;;
3141;SDS011;1581;51.568;6.998;2022-12-18T14:01:01;21.93;;;12.53;;
3141;SDS011;1581;51.568;6.998;2022-12-18T14:03:29;25.40;;;12.60;;
3141;SDS011;1581;51.568;6.998;2022-12-18T14:06:05;21.30;;;11.83;;
3141;SDS011;1581;51.568;6.998;2022-12-18T14:08:37;26.40;;;12.50;;
3141;SDS011;1581;51.568;6.998;2022-12-18T14:11:07;29.23;;;12.90;;
3141;SDS011;1581;51.568;6.998;2022-12-18T14:13:48;22.10;;;12.80;;
3141;SDS011;1581;51.568;6.998;2022-12-18T14:16:16;24.60;;;11.43;;
3141;SDS011;1581;51.568;6.998;2022-12-18T14:18:45;21.57;;;11.60;;
3141;SDS011;1581;51.568;6.998;2022-12-18T14:21:21;26.30;;;13.13;;
3141;SDS011;1581;51.568;6.998;2022-12-18T14:24:02;24.63;;;10.63;;
3141;SDS011;1581;51.568;6.998;2022-12-18T14:26:32;14.47;;;8.70;;
3141;SDS011;1581;51.568;6.998;2022-12-18T14:29:01;14.83;;;9.17;;
3141;SDS011;1581;51.568;6.998;2022-12-18T14:31:46;17.30;;;7.67;;
3141;SDS011;1581;51.568;6.998;2022-12-18T14:34:34;14.00;;;7.60;;
3141;SDS011;1581;51.568;6.998;2022-12-18T14:37:02;15.80;;;8.60;;
3141;SDS011;1581;51.568;6.998;2022-12-18T14:39:32;13.67;;;8.70;;
3141;SDS011;1581;51.568;6.998;2022-12-18T14:41:59;18.60;;;7.90;;
3141;SDS011;1581;51.568;6.998;2022-12-18T14:44:27;14.23;;;7.70;;
3141;SDS011;1581;51.568;6.998;2022-12-18T14:46:54;19.43;;;9.30;;
3141;SDS011;1581;51.568;6.998;2022-12-18T14:49:23;19.80;;;10.10;;
3141;SDS011;1581;51.568;6.998;2022-12-18T14:51:56;12.67;;;7.67;;
3141;SDS011;1581;51.568;6.998;2022-12-18T14:54:27;14.17;;;7.20;;
3141;SDS011;1581;51.568;6.998;2022-12-18T14:56:57;10.00;;;6.30;;
3141;SDS011;1581;51.568;6.998;2022-12-18T14:59:28;11.70;;;6.90;;
3141;SDS011;1581;51.568;6.998;2022-12-18T15:01:58;12.20;;;6.97;;
3141;SDS011;1581;51.568;6.998;2022-12-18T15:04:31;14.93;;;6.70;;
3141;SDS011;1581;51.568;6.998;2022-12-18T15:07:02;10.60;;;6.30;;
3141;SDS011;1581;51.568;6.998;2022-12-18T15:09:43;15.50;;;7.17;;
3141;SDS011;1581;51.568;6.998;2022-12-18T15:12:28;8.20;;;5.47;;
3141;SDS011;1581;51.568;6.998;2022-12-18T15:15:02;12.03;;;6.63;;
3141;SDS011;1581;51.568;6.998;2022-12-18T15:17:30;9.60;;;6.40;;
3141;SDS011;1581;51.568;6.998;2022-12-18T15:19:59;11.30;;;6.33;;
3141;SDS011;1581;51.568;6.998;2022-12-18T15:22:30;11.60;;;7.33;;
3141;SDS011;1581;51.568;6.998;2022-12-18T15:25:03;12.67;;;6.57;;
3141;SDS011;1581;51.568;6.998;2022-12-18T15:27:54;11.47;;;7.00;;
3141;SDS011;1581;51.568;6.998;2022-12-18T15:30:22;15.63;;;7.80;;
3141;SDS011;1581;51.568;6.998;2022-12-18T15:32:51;15.60;;;7.57;;
3141;SDS011;1581;51.568;6.998;2022-12-18T15:35:39;12.60;;;7.30;;
3141;SDS011;1581;51.568;6.998;2022-12-18T15:38:07;13.80;;;7.63;;
3141;SDS011;1581;51.568;6.998;2022-12-18T15:40:36;18.90;;;7.37;;
3141;SDS011;1581;51.568;6.998;2022-12-18T15:43:04;15.97;;;8.50;;
3141;SDS011;1581;51.568;6.998;2022-12-18T15:46:08;16.00;;;7.70;;
3141;SDS011;1581;51.568;6.998;2022-12-18T15:48:39;14.63;;;7.43;;
3141;SDS011;1581;51.568;6.998;2022-12-18T15:53:41;20.27;;;8.97;;
3141;SDS011;1581;51.568;6.998;2022-12-18T15:56:12;16.37;;;9.33;;